sensor_id;sensor_type;location;lat;lon;timestamp;P1;durP1;ratioP1;P2;durP2;ratioP2
80854;SDS011;70272;49.222;-122.892;2023-11-18T00:00:34;4.45;;;2.97;;
80854;SDS011;70272;49.222;-122.892;2023-11-18T00:03:00;5.90;;;2.53;;
80854;SDS011;70272;49.222;-122.892;2023-11-18T00:05:27;6.40;;;2.95;;
80854;SDS011;70272;49.222;-122.892;2023-11-18T00:07:53;9.68;;;3.50;;
80854;SDS011;70272;49.222;-122.892;2023-11-18T00:10:20;5.53;;;3.65;;
80854;SDS011;70272;49.222;-122.892;2023-11-18T00:12:46;7.18;;;4.25;;
80854;SDS011;70272;49.222;-122.892;2023-11-18T00:15:16;9.65;;;3.70;;
80854;SDS011;70272;49.222;-122.892;2023-11-18T00:17:43;9.77;;;3.53;;
80854;SDS011;70272;49.222;-122.892;2023-11-18T00:20:09;6.00;;;2.47;;
80854;SDS011;70272;49.222;-122.892;2023-11-18T00:22:37;6.72;;;3.05;;
80854;SDS011;70272;49.222;-122.892;2023-11-18T00:25:05;5.93;;;3.15;;
80854;SDS011;70272;49.222;-122.892;2023-11-18T00:27:34;7.80;;;2.67;;
80854;SDS011;70272;49.222;-122.892;2023-11-18T00:30:06;5.45;;;2.70;;
80854;SDS011;70272;49.222;-122.892;2023-11-18T00:32:39;4.90;;;2.92;;
80854;SDS011;70272;49.222;-122.892;2023-11-18T00:35:05;4.38;;;2.83;;
80854;SDS011;70272;49.222;-122.892;2023-11-18T00:37:32;4.10;;;2.38;;
80854;SDS011;70272;49.222;-122.892;2023-11-18T00:39:59;3.67;;;2.38;;
80854;SDS011;70272;49.222;-122.892;2023-11-18T00:42:25;5.05;;;2.42;;
80854;SDS011;70272;49.222;-122.892;2023-11-18T00:44:51;3.97;;;2.50;;
80854;SDS011;70272;49.222;-122.892;2023-11-18T00:47:18;4.93;;;2.67;;
80854;SDS011;70272;49.222;-122.892;2023-11-18T00:49:44;4.13;;;2.42;;
80854;SDS011;70272;49.222;-122.892;2023-11-18T00:52:10;3.95;;;2.40;;
80854;SDS011;70272;49.222;-122.892;2023-11-18T00:54:37;4.43;;;2.22;;
80854;SDS011;70272;49.222;-122.892;2023-11-18T00:57:03;4.57;;;2.47;;
80854;SDS011;70272;49.222;-122.892;2023-11-18T00:59:29;3.70;;;2.30;;
80854;SDS011;70272;49.222;-122.892;2023-11-18T01:01:56;3.58;;;2.28;;
80854;SDS011;70272;49.222;-122.892;2023-11-18T01:04:22;4.32;;;2.45;;
80854;SDS011;70272;49.222;-122.892;2023-11-18T01:06:48;5.88;;;2.50;;
80854;SDS011;70272;49.222;-122.892;2023-11-18T01:09:19;3.17;;;2.28;;
80854;SDS011;70272;49.222;-122.892;2023-11-18T01:11:45;5.65;;;2.40;;
80854;SDS011;70272;49.222;-122.892;2023-11-18T01:14:11;3.72;;;2.38;;
80854;SDS011;70272;49.222;-122.892;2023-11-18T01:16:38;4.32;;;3.00;;
80854;SDS011;70272;49.222;-122.892;2023-11-18T01:19:04;6.40;;;3.28;;
80854;SDS011;70272;49.222;-122.892;2023-11-18T01:21:34;5.50;;;3.33;;
80854;SDS011;70272;49.222;-122.892;2023-11-18T01:24:01;4.82;;;3.00;;
80854;SDS011;70272;49.222;-122.892;2023-11-18T01:26:28;4.85;;;3.10;;
80854;SDS011;70272;49.222;-122.892;2023-11-18T01:28:54;6.68;;;3.40;;
80854;SDS011;70272;49.222;-122.892;2023-11-18T01:31:22;5.82;;;3.25;;
80854;SDS011;70272;49.222;-122.892;2023-11-18T01:33:48;4.53;;;3.05;;
80854;SDS011;70272;49.222;-122.892;2023-11-18T01:36:15;5.30;;;3.03;;
80854;SDS011;70272;49.222;-122.892;2023-11-18T01:38:43;5.45;;;2.95;;
80854;SDS011;70272;49.222;-122.892;2023-11-18T01:41:09;5.82;;;2.95;;
80854;SDS011;70272;49.222;-122.892;2023-11-18T01:43:35;4.18;;;2.95;;
80854;SDS011;70272;49.222;-122.892;2023-11-18T01:46:02;9.07;;;3.13;;
80854;SDS011;70272;49.222;-122.892;2023-11-18T01:48:30;4.75;;;2.55;;
80854;SDS011;70272;49.222;-122.892;2023-11-18T01:50:58;16.05;;;10.93;;
80854;SDS011;70272;49.222;-122.892;2023-11-18T01:53:26;17.67;;;11.90;;
80854;SDS011;70272;49.222;-122.892;2023-11-18T01:55:52;10.45;;;8.00;;
80854;SDS011;70272;49.222;-122.892;2023-11-18T01:58:20;8.93;;;6.20;;
80854;SDS011;70272;49.222;-122.892;2023-11-18T02:00:48;14.50;;;8.50;;
80854;SDS011;70272;49.222;-122.892;2023-11-18T02:03:16;5.75;;;3.60;;
80854;SDS011;70272;49.222;-122.892;2023-11-18T02:05:43;5.97;;;3.42;;
80854;SDS011;70272;49.222;-122.892;2023-11-18T02:08:10;5.95;;;3.58;;
80854;SDS011;70272;49.222;-122.892;2023-11-18T02:10:49;6.85;;;3.72;;
80854;SDS011;70272;49.222;-122.892;2023-11-18T02:13:23;5.68;;;4.35;;
80854;SDS011;70272;49.222;-122.892;2023-11-18T02:15:58;6.70;;;3.60;;
80854;SDS011;70272;49.222;-122.892;2023-11-18T02:18:25;6.18;;;3.15;;
80854;SDS011;70272;49.222;-122.892;2023-11-18T02:20:52;5.63;;;3.28;;
80854;SDS011;70272;49.222;-122.892;2023-11-18T02:23:23;6.05;;;3.03;;
80854;SDS011;70272;49.222;-122.892;2023-11-18T02:25:51;5.38;;;2.88;;
80854;SDS011;70272;49.222;-122.892;2023-11-18T02:28:18;4.25;;;2.85;;
80854;SDS011;70272;49.222;-122.892;2023-11-18T02:30:45;4.95;;;2.72;;
80854;SDS011;70272;49.222;-122.892;2023-11-18T02:33:15;5.78;;;2.85;;
80854;SDS011;70272;49.222;-122.892;2023-11-18T02:35:53;6.75;;;3.20;;
80854;SDS011;70272;49.222;-122.892;2023-11-18T02:38:27;8.75;;;3.80;;
80854;SDS011;70272;49.222;-122.892;2023-11-18T02:40:58;5.78;;;3.17;;
80854;SDS011;70272;49.222;-122.892;2023-11-18T02:43:25;9.02;;;4.30;;
80854;SDS011;70272;49.222;-122.892;2023-11-18T02:45:54;6.63;;;4.03;;
80854;SDS011;70272;49.222;-122.892;2023-11-18T02:48:22;5.82;;;3.38;;
80854;SDS011;70272;49.222;-122.892;2023-11-18T02:50:49;4.95;;;3.50;;
80854;SDS011;70272;49.222;-122.892;2023-11-18T02:53:15;5.68;;;3.15;;
80854;SDS011;70272;49.222;-122.892;2023-11-18T02:55:41;6.68;;;3.50;;
80854;SDS011;70272;49.222;-122.892;2023-11-18T02:58:08;6.32;;;3.55;;
80854;SDS011;70272;49.222;-122.892;2023-11-18T03:00:34;8.00;;;3.63;;
80854;SDS011;70272;49.222;-122.892;2023-11-18T03:03:00;5.40;;;3.63;;
80854;SDS011;70272;49.222;-122.892;2023-11-18T03:05:28;7.82;;;3.42;;
80854;SDS011;70272;49.222;-122.892;2023-11-18T03:07:55;5.20;;;2.88;;
80854;SDS011;70272;49.222;-122.892;2023-11-18T03:10:23;6.30;;;3.50;;
80854;SDS011;70272;49.222;-122.892;2023-11-18T03:12:50;5.22;;;3.10;;
80854;SDS011;70272;49.222;-122.892;2023-11-18T03:15:17;4.65;;;2.88;;
80854;SDS011;70272;49.222;-122.892;2023-11-18T03:17:45;6.38;;;3.50;;
80854;SDS011;70272;49.222;-122.892;2023-11-18T03:20:14;3.63;;;2.60;;
80854;SDS011;70272;49.222;-122.892;2023-11-18T03:22:48;5.75;;;3.60;;
80854;SDS011;70272;49.222;-122.892;2023-11-18T03:25:16;7.30;;;3.05;;
80854;SDS011;70272;49.222;-122.892;2023-11-18T03:27:44;4.55;;;3.08;;
80854;SDS011;70272;49.222;-122.892;2023-11-18T03:30:11;8.18;;;3.40;;
80854;SDS011;70272;49.222;-122.892;2023-11-18T03:32:38;6.13;;;3.55;;
80854;SDS011;70272;49.222;-122.892;2023-11-18T03:35:07;7.32;;;3.10;;
80854;SDS011;70272;49.222;-122.892;2023-11-18T03:37:40;5.65;;;3.08;;
80854;SDS011;70272;49.222;-122.892;2023-11-18T03:40:07;5.85;;;3.35;;
80854;SDS011;70272;49.222;-122.892;2023-11-18T03:42:34;7.20;;;3.60;;
80854;SDS011;70272;49.222;-122.892;2023-11-18T03:45:03;7.47;;;4.00;;
80854;SDS011;70272;49.222;-122.892;2023-11-18T03:47:30;7.18;;;3.58;;
80854;SDS011;70272;49.222;-122.892;2023-11-18T03:49:57;5.18;;;4.10;;
80854;SDS011;70272;49.222;-122.892;2023-11-18T03:52:23;8.07;;;3.60;;
80854;SDS011;70272;49.222;-122.892;2023-11-18T03:54:50;7.20;;;3.55;;
80854;SDS011;70272;49.222;-122.892;2023-11-18T03:57:17;9.02;;;4.68;;
80854;SDS011;70272;49.222;-122.892;2023-11-18T03:59:43;5.93;;;3.50;;
80854;SDS011;70272;49.222;-122.892;2023-11-18T04:02:09;4.93;;;3.03;;
80854;SDS011;70272;49.222;-122.892;2023-11-18T04:04:39;8.88;;;4.90;;
80854;SDS011;70272;49.222;-122.892;2023-11-18T04:07:05;6.03;;;4.13;;
80854;SDS011;70272;49.222;-122.892;2023-11-18T04:09:32;6.38;;;3.55;;
80854;SDS011;70272;49.222;-122.892;2023-11-18T04:11:58;6.18;;;4.07;;
80854;SDS011;70272;49.222;-122.892;2023-11-18T04:14:25;6.32;;;4.20;;
80854;SDS011;70272;49.222;-122.892;2023-11-18T04:16:51;6.50;;;4.03;;
80854;SDS011;70272;49.222;-122.892;2023-11-18T04:19:18;4.78;;;3.55;;
80854;SDS011;70272;49.222;-122.892;2023-11-18T04:21:46;8.75;;;5.07;;
80854;SDS011;70272;49.222;-122.892;2023-11-18T04:24:14;9.27;;;5.93;;
80854;SDS011;70272;49.222;-122.892;2023-11-18T04:26:41;8.20;;;4.15;;
80854;SDS011;70272;49.222;-122.892;2023-11-18T04:29:07;9.95;;;5.95;;
80854;SDS011;70272;49.222;-122.892;2023-11-18T04:31:33;13.15;;;8.88;;
80854;SDS011;70272;49.222;-122.892;2023-11-18T04:34:00;14.32;;;9.82;;
80854;SDS011;70272;49.222;-122.892;2023-11-18T04:36:26;13.90;;;7.93;;
80854;SDS011;70272;49.222;-122.892;2023-11-18T04:38:56;7.13;;;4.53;;
80854;SDS011;70272;49.222;-122.892;2023-11-18T04:41:23;5.80;;;3.63;;
80854;SDS011;70272;49.222;-122.892;2023-11-18T04:43:49;5.95;;;3.90;;
80854;SDS011;70272;49.222;-122.892;2023-11-18T04:46:15;6.32;;;3.50;;
80854;SDS011;70272;49.222;-122.892;2023-11-18T04:48:42;5.82;;;4.03;;
80854;SDS011;70272;49.222;-122.892;2023-11-18T04:51:08;5.47;;;3.70;;
80854;SDS011;70272;49.222;-122.892;2023-11-18T04:53:35;5.13;;;3.25;;
80854;SDS011;70272;49.222;-122.892;2023-11-18T04:56:01;6.53;;;3.00;;
80854;SDS011;70272;49.222;-122.892;2023-11-18T04:58:28;5.13;;;3.33;;
80854;SDS011;70272;49.222;-122.892;2023-11-18T05:00:54;7.45;;;3.88;;
80854;SDS011;70272;49.222;-122.892;2023-11-18T05:03:20;5.28;;;3.38;;
80854;SDS011;70272;49.222;-122.892;2023-11-18T05:05:47;3.78;;;2.63;;
80854;SDS011;70272;49.222;-122.892;2023-11-18T05:08:19;6.63;;;2.80;;
80854;SDS011;70272;49.222;-122.892;2023-11-18T05:10:47;5.88;;;3.22;;
80854;SDS011;70272;49.222;-122.892;2023-11-18T05:13:14;3.90;;;2.80;;
80854;SDS011;70272;49.222;-122.892;2023-11-18T05:15:44;4.30;;;2.95;;
80854;SDS011;70272;49.222;-122.892;2023-11-18T05:18:14;5.15;;;3.10;;
80854;SDS011;70272;49.222;-122.892;2023-11-18T05:20:41;7.38;;;2.92;;
80854;SDS011;70272;49.222;-122.892;2023-11-18T05:23:08;9.13;;;3.22;;
80854;SDS011;70272;49.222;-122.892;2023-11-18T05:25:39;4.50;;;3.13;;
80854;SDS011;70272;49.222;-122.892;2023-11-18T05:28:05;5.93;;;2.75;;
80854;SDS011;70272;49.222;-122.892;2023-11-18T05:30:35;6.20;;;2.92;;
80854;SDS011;70272;49.222;-122.892;2023-11-18T05:33:02;6.60;;;3.45;;
80854;SDS011;70272;49.222;-122.892;2023-11-18T05:35:32;5.43;;;3.58;;
80854;SDS011;70272;49.222;-122.892;2023-11-18T05:38:00;10.23;;;4.65;;
80854;SDS011;70272;49.222;-122.892;2023-11-18T05:40:28;5.72;;;3.92;;
80854;SDS011;70272;49.222;-122.892;2023-11-18T05:42:55;8.90;;;4.88;;
80854;SDS011;70272;49.222;-122.892;2023-11-18T05:45:22;8.98;;;4.75;;
80854;SDS011;70272;49.222;-122.892;2023-11-18T05:47:57;5.82;;;4.00;;
80854;SDS011;70272;49.222;-122.892;2023-11-18T05:50:24;8.85;;;5.43;;
80854;SDS011;70272;49.222;-122.892;2023-11-18T05:52:51;6.25;;;4.38;;
80854;SDS011;70272;49.222;-122.892;2023-11-18T05:55:18;3.85;;;2.83;;
80854;SDS011;70272;49.222;-122.892;2023-11-18T05:57:45;5.40;;;2.95;;
80854;SDS011;70272;49.222;-122.892;2023-11-18T06:00:12;5.75;;;3.13;;
80854;SDS011;70272;49.222;-122.892;2023-11-18T06:02:41;6.40;;;3.13;;
80854;SDS011;70272;49.222;-122.892;2023-11-18T06:05:08;5.13;;;2.90;;
80854;SDS011;70272;49.222;-122.892;2023-11-18T06:07:38;6.95;;;3.40;;
80854;SDS011;70272;49.222;-122.892;2023-11-18T06:10:08;7.43;;;3.42;;
80854;SDS011;70272;49.222;-122.892;2023-11-18T06:12:35;5.25;;;3.03;;
80854;SDS011;70272;49.222;-122.892;2023-11-18T06:15:02;4.53;;;3.30;;
80854;SDS011;70272;49.222;-122.892;2023-11-18T06:17:29;7.40;;;3.92;;
80854;SDS011;70272;49.222;-122.892;2023-11-18T06:19:55;6.93;;;3.75;;
80854;SDS011;70272;49.222;-122.892;2023-11-18T06:22:21;5.45;;;3.38;;
80854;SDS011;70272;49.222;-122.892;2023-11-18T06:24:48;5.07;;;2.95;;
80854;SDS011;70272;49.222;-122.892;2023-11-18T06:27:15;7.40;;;3.63;;
80854;SDS011;70272;49.222;-122.892;2023-11-18T06:29:41;5.25;;;3.58;;
80854;SDS011;70272;49.222;-122.892;2023-11-18T06:32:07;9.07;;;4.18;;
80854;SDS011;70272;49.222;-122.892;2023-11-18T06:34:33;10.23;;;4.22;;
80854;SDS011;70272;49.222;-122.892;2023-11-18T06:37:00;6.50;;;3.33;;
80854;SDS011;70272;49.222;-122.892;2023-11-18T06:39:26;5.97;;;3.00;;
80854;SDS011;70272;49.222;-122.892;2023-11-18T06:41:56;6.30;;;3.28;;
80854;SDS011;70272;49.222;-122.892;2023-11-18T06:44:23;4.57;;;2.72;;
80854;SDS011;70272;49.222;-122.892;2023-11-18T06:46:50;3.72;;;2.92;;
80854;SDS011;70272;49.222;-122.892;2023-11-18T06:49:16;6.95;;;2.75;;
80854;SDS011;70272;49.222;-122.892;2023-11-18T06:51:44;4.38;;;3.00;;
80854;SDS011;70272;49.222;-122.892;2023-11-18T06:54:10;4.43;;;2.80;;
80854;SDS011;70272;49.222;-122.892;2023-11-18T06:56:42;4.82;;;2.97;;
80854;SDS011;70272;49.222;-122.892;2023-11-18T06:59:11;5.22;;;3.08;;
80854;SDS011;70272;49.222;-122.892;2023-11-18T07:01:38;6.22;;;2.90;;
80854;SDS011;70272;49.222;-122.892;2023-11-18T07:04:09;3.95;;;2.35;;
80854;SDS011;70272;49.222;-122.892;2023-11-18T07:06:35;3.83;;;3.00;;
80854;SDS011;70272;49.222;-122.892;2023-11-18T07:09:08;8.23;;;3.55;;
80854;SDS011;70272;49.222;-122.892;2023-11-18T07:11:41;9.27;;;4.75;;
80854;SDS011;70272;49.222;-122.892;2023-11-18T07:14:08;9.55;;;4.40;;
80854;SDS011;70272;49.222;-122.892;2023-11-18T07:16:38;8.00;;;4.10;;
80854;SDS011;70272;49.222;-122.892;2023-11-18T07:19:05;9.07;;;4.32;;
80854;SDS011;70272;49.222;-122.892;2023-11-18T07:21:31;6.28;;;3.22;;
80854;SDS011;70272;49.222;-122.892;2023-11-18T07:23:59;5.65;;;2.88;;
80854;SDS011;70272;49.222;-122.892;2023-11-18T07:26:25;6.80;;;3.20;;
80854;SDS011;70272;49.222;-122.892;2023-11-18T07:28:51;8.25;;;4.32;;
80854;SDS011;70272;49.222;-122.892;2023-11-18T07:31:18;6.88;;;4.18;;
80854;SDS011;70272;49.222;-122.892;2023-11-18T07:33:45;7.78;;;4.00;;
80854;SDS011;70272;49.222;-122.892;2023-11-18T07:36:17;9.95;;;4.15;;
80854;SDS011;70272;49.222;-122.892;2023-11-18T07:38:47;8.52;;;3.70;;
80854;SDS011;70272;49.222;-122.892;2023-11-18T07:41:13;4.05;;;2.72;;
80854;SDS011;70272;49.222;-122.892;2023-11-18T07:43:52;4.45;;;2.60;;
80854;SDS011;70272;49.222;-122.892;2023-11-18T07:46:20;4.95;;;3.05;;
80854;SDS011;70272;49.222;-122.892;2023-11-18T07:48:49;4.78;;;2.60;;
80854;SDS011;70272;49.222;-122.892;2023-11-18T07:51:17;5.80;;;3.15;;
80854;SDS011;70272;49.222;-122.892;2023-11-18T07:53:47;5.60;;;3.05;;
80854;SDS011;70272;49.222;-122.892;2023-11-18T07:56:14;5.88;;;3.10;;
80854;SDS011;70272;49.222;-122.892;2023-11-18T07:58:45;7.95;;;3.10;;
80854;SDS011;70272;49.222;-122.892;2023-11-18T08:01:12;5.00;;;3.30;;
80854;SDS011;70272;49.222;-122.892;2023-11-18T08:03:39;5.50;;;2.92;;
80854;SDS011;70272;49.222;-122.892;2023-11-18T08:06:10;4.80;;;2.47;;
80854;SDS011;70272;49.222;-122.892;2023-11-18T08:08:37;5.20;;;2.40;;
80854;SDS011;70272;49.222;-122.892;2023-11-18T08:11:06;4.90;;;2.70;;
80854;SDS011;70272;49.222;-122.892;2023-11-18T08:13:35;4.55;;;2.72;;
80854;SDS011;70272;49.222;-122.892;2023-11-18T08:16:01;6.70;;;2.95;;
80854;SDS011;70272;49.222;-122.892;2023-11-18T08:18:28;3.80;;;2.88;;
80854;SDS011;70272;49.222;-122.892;2023-11-18T08:20:56;4.68;;;2.80;;
80854;SDS011;70272;49.222;-122.892;2023-11-18T08:23:23;4.85;;;2.42;;
80854;SDS011;70272;49.222;-122.892;2023-11-18T08:25:49;3.20;;;2.05;;
80854;SDS011;70272;49.222;-122.892;2023-11-18T08:28:16;4.25;;;2.38;;
80854;SDS011;70272;49.222;-122.892;2023-11-18T08:30:44;6.60;;;2.83;;
80854;SDS011;70272;49.222;-122.892;2023-11-18T08:33:14;5.28;;;2.58;;
80854;SDS011;70272;49.222;-122.892;2023-11-18T08:35:40;3.42;;;2.10;;
80854;SDS011;70272;49.222;-122.892;2023-11-18T08:38:07;4.78;;;2.05;;
80854;SDS011;70272;49.222;-122.892;2023-11-18T08:40:35;3.53;;;2.28;;
80854;SDS011;70272;49.222;-122.892;2023-11-18T08:43:01;3.70;;;2.10;;
80854;SDS011;70272;49.222;-122.892;2023-11-18T08:45:32;3.70;;;2.40;;
80854;SDS011;70272;49.222;-122.892;2023-11-18T08:48:01;5.10;;;2.25;;
80854;SDS011;70272;49.222;-122.892;2023-11-18T08:50:32;3.65;;;2.22;;
80854;SDS011;70272;49.222;-122.892;2023-11-18T08:52:59;3.35;;;1.90;;
80854;SDS011;70272;49.222;-122.892;2023-11-18T08:55:32;7.05;;;2.40;;
80854;SDS011;70272;49.222;-122.892;2023-11-18T08:58:05;3.30;;;2.00;;
80854;SDS011;70272;49.222;-122.892;2023-11-18T09:00:44;3.65;;;2.22;;
80854;SDS011;70272;49.222;-122.892;2023-11-18T09:03:16;3.53;;;2.28;;
80854;SDS011;70272;49.222;-122.892;2023-11-18T09:06:04;4.50;;;2.40;;
80854;SDS011;70272;49.222;-122.892;2023-11-18T09:08:41;3.92;;;2.28;;
80854;SDS011;70272;49.222;-122.892;2023-11-18T09:11:11;3.45;;;2.40;;
80854;SDS011;70272;49.222;-122.892;2023-11-18T09:13:46;6.75;;;3.00;;
80854;SDS011;70272;49.222;-122.892;2023-11-18T09:16:32;7.80;;;3.97;;
80854;SDS011;70272;49.222;-122.892;2023-11-18T09:19:03;5.15;;;2.90;;
80854;SDS011;70272;49.222;-122.892;2023-11-18T09:21:31;5.25;;;3.33;;
80854;SDS011;70272;49.222;-122.892;2023-11-18T09:24:00;4.93;;;3.13;;
80854;SDS011;70272;49.222;-122.892;2023-11-18T09:26:33;5.70;;;3.63;;
80854;SDS011;70272;49.222;-122.892;2023-11-18T09:29:00;7.40;;;3.97;;
80854;SDS011;70272;49.222;-122.892;2023-11-18T09:31:31;6.38;;;3.83;;
80854;SDS011;70272;49.222;-122.892;2023-11-18T09:33:58;4.55;;;3.50;;
80854;SDS011;70272;49.222;-122.892;2023-11-18T09:36:25;9.52;;;4.15;;
80854;SDS011;70272;49.222;-122.892;2023-11-18T09:38:53;8.32;;;3.65;;
80854;SDS011;70272;49.222;-122.892;2023-11-18T09:41:22;6.10;;;3.38;;
80854;SDS011;70272;49.222;-122.892;2023-11-18T09:43:52;4.97;;;3.10;;
80854;SDS011;70272;49.222;-122.892;2023-11-18T09:46:28;3.65;;;2.85;;
80854;SDS011;70272;49.222;-122.892;2023-11-18T09:49:06;6.00;;;2.88;;
80854;SDS011;70272;49.222;-122.892;2023-11-18T09:51:44;7.22;;;3.13;;
80854;SDS011;70272;49.222;-122.892;2023-11-18T09:54:23;4.32;;;2.83;;
80854;SDS011;70272;49.222;-122.892;2023-11-18T10:00:04;4.55;;;2.50;;
80854;SDS011;70272;49.222;-122.892;2023-11-18T10:02:45;4.75;;;2.65;;
80854;SDS011;70272;49.222;-122.892;2023-11-18T10:05:16;4.03;;;2.40;;
80854;SDS011;70272;49.222;-122.892;2023-11-18T10:07:49;3.97;;;2.55;;
80854;SDS011;70272;49.222;-122.892;2023-11-18T10:10:16;6.03;;;2.70;;
80854;SDS011;70272;49.222;-122.892;2023-11-18T10:12:52;4.38;;;2.63;;
80854;SDS011;70272;49.222;-122.892;2023-11-18T10:15:23;5.22;;;2.60;;
80854;SDS011;70272;49.222;-122.892;2023-11-18T10:17:53;4.80;;;2.42;;
80854;SDS011;70272;49.222;-122.892;2023-11-18T10:20:44;5.93;;;2.60;;
80854;SDS011;70272;49.222;-122.892;2023-11-18T10:23:15;4.82;;;2.80;;
80854;SDS011;70272;49.222;-122.892;2023-11-18T10:25:50;4.03;;;2.60;;
80854;SDS011;70272;49.222;-122.892;2023-11-18T10:28:27;4.63;;;2.92;;
80854;SDS011;70272;49.222;-122.892;2023-11-18T10:30:58;4.57;;;2.58;;
80854;SDS011;70272;49.222;-122.892;2023-11-18T10:33:35;3.53;;;2.20;;
80854;SDS011;70272;49.222;-122.892;2023-11-18T10:36:03;3.58;;;2.42;;
80854;SDS011;70272;49.222;-122.892;2023-11-18T10:38:32;4.70;;;2.10;;
80854;SDS011;70272;49.222;-122.892;2023-11-18T10:41:08;5.25;;;2.10;;
80854;SDS011;70272;49.222;-122.892;2023-11-18T10:43:37;4.28;;;2.70;;
80854;SDS011;70272;49.222;-122.892;2023-11-18T10:46:11;5.85;;;2.40;;
80854;SDS011;70272;49.222;-122.892;2023-11-18T10:48:47;3.85;;;2.40;;
80854;SDS011;70272;49.222;-122.892;2023-11-18T10:51:15;4.47;;;2.45;;
80854;SDS011;70272;49.222;-122.892;2023-11-18T10:53:49;4.28;;;2.28;;
80854;SDS011;70272;49.222;-122.892;2023-11-18T10:56:45;3.13;;;2.42;;
80854;SDS011;70272;49.222;-122.892;2023-11-18T10:59:15;3.85;;;2.60;;
80854;SDS011;70272;49.222;-122.892;2023-11-18T11:01:42;3.05;;;2.00;;
80854;SDS011;70272;49.222;-122.892;2023-11-18T11:04:11;7.75;;;2.40;;
80854;SDS011;70272;49.222;-122.892;2023-11-18T11:06:46;3.85;;;2.50;;
80854;SDS011;70272;49.222;-122.892;2023-11-18T11:09:22;3.67;;;2.22;;
80854;SDS011;70272;49.222;-122.892;2023-11-18T11:12:11;4.18;;;2.30;;
80854;SDS011;70272;49.222;-122.892;2023-11-18T11:14:46;5.07;;;2.78;;
80854;SDS011;70272;49.222;-122.892;2023-11-18T11:17:25;3.33;;;2.10;;
80854;SDS011;70272;49.222;-122.892;2023-11-18T11:20:04;4.45;;;2.47;;
80854;SDS011;70272;49.222;-122.892;2023-11-18T11:22:46;4.97;;;2.50;;
80854;SDS011;70272;49.222;-122.892;2023-11-18T11:25:25;4.22;;;2.65;;
80854;SDS011;70272;49.222;-122.892;2023-11-18T11:28:11;4.35;;;2.67;;
80854;SDS011;70272;49.222;-122.892;2023-11-18T11:31:12;4.72;;;2.95;;
80854;SDS011;70272;49.222;-122.892;2023-11-18T11:33:49;5.20;;;2.97;;
80854;SDS011;70272;49.222;-122.892;2023-11-18T11:36:25;4.43;;;2.60;;
80854;SDS011;70272;49.222;-122.892;2023-11-18T11:39:07;6.13;;;2.90;;
80854;SDS011;70272;49.222;-122.892;2023-11-18T11:42:01;4.10;;;2.60;;
80854;SDS011;70272;49.222;-122.892;2023-11-18T11:44:26;5.35;;;2.80;;
80854;SDS011;70272;49.222;-122.892;2023-11-18T11:46:57;4.63;;;2.60;;
80854;SDS011;70272;49.222;-122.892;2023-11-18T11:49:25;3.78;;;2.67;;
80854;SDS011;70272;49.222;-122.892;2023-11-18T11:52:07;3.83;;;2.47;;
80854;SDS011;70272;49.222;-122.892;2023-11-18T11:57:28;4.47;;;2.72;;
80854;SDS011;70272;49.222;-122.892;2023-11-18T11:59:54;3.05;;;2.38;;
80854;SDS011;70272;49.222;-122.892;2023-11-18T12:02:22;3.92;;;2.90;;
80854;SDS011;70272;49.222;-122.892;2023-11-18T12:04:57;6.70;;;2.83;;
80854;SDS011;70272;49.222;-122.892;2023-11-18T12:07:27;3.85;;;2.55;;
80854;SDS011;70272;49.222;-122.892;2023-11-18T12:09:57;5.70;;;2.53;;
80854;SDS011;70272;49.222;-122.892;2023-11-18T12:12:25;3.38;;;2.17;;
80854;SDS011;70272;49.222;-122.892;2023-11-18T12:14:53;3.13;;;2.15;;
80854;SDS011;70272;49.222;-122.892;2023-11-18T12:17:25;7.15;;;2.50;;
80854;SDS011;70272;49.222;-122.892;2023-11-18T12:19:57;3.78;;;2.80;;
80854;SDS011;70272;49.222;-122.892;2023-11-18T12:23:03;3.88;;;2.45;;
80854;SDS011;70272;49.222;-122.892;2023-11-18T12:25:39;4.10;;;2.60;;
80854;SDS011;70272;49.222;-122.892;2023-11-18T12:28:10;4.40;;;2.63;;
80854;SDS011;70272;49.222;-122.892;2023-11-18T12:30:40;5.13;;;2.83;;
80854;SDS011;70272;49.222;-122.892;2023-11-18T12:33:23;3.30;;;2.60;;
80854;SDS011;70272;49.222;-122.892;2023-11-18T12:44:04;4.45;;;2.65;;
80854;SDS011;70272;49.222;-122.892;2023-11-18T12:49:46;3.22;;;2.20;;
80854;SDS011;70272;49.222;-122.892;2023-11-18T12:52:20;5.43;;;2.40;;
80854;SDS011;70272;49.222;-122.892;2023-11-18T12:54:47;4.43;;;3.00;;
80854;SDS011;70272;49.222;-122.892;2023-11-18T12:57:18;3.58;;;2.55;;
80854;SDS011;70272;49.222;-122.892;2023-11-18T12:59:48;4.93;;;2.45;;
80854;SDS011;70272;49.222;-122.892;2023-11-18T13:02:15;4.05;;;2.55;;
80854;SDS011;70272;49.222;-122.892;2023-11-18T13:04:45;4.05;;;2.60;;
80854;SDS011;70272;49.222;-122.892;2023-11-18T13:07:17;4.85;;;3.03;;
80854;SDS011;70272;49.222;-122.892;2023-11-18T13:09:44;4.10;;;3.08;;
80854;SDS011;70272;49.222;-122.892;2023-11-18T13:12:11;3.65;;;2.33;;
80854;SDS011;70272;49.222;-122.892;2023-11-18T13:14:42;3.97;;;2.53;;
80854;SDS011;70272;49.222;-122.892;2023-11-18T13:17:16;3.63;;;2.50;;
80854;SDS011;70272;49.222;-122.892;2023-11-18T13:19:44;5.30;;;2.85;;
80854;SDS011;70272;49.222;-122.892;2023-11-18T13:22:12;4.97;;;2.92;;
80854;SDS011;70272;49.222;-122.892;2023-11-18T13:24:40;3.00;;;2.47;;
80854;SDS011;70272;49.222;-122.892;2023-11-18T13:27:11;4.38;;;3.08;;
80854;SDS011;70272;49.222;-122.892;2023-11-18T13:29:44;4.53;;;2.95;;
80854;SDS011;70272;49.222;-122.892;2023-11-18T13:32:12;4.38;;;2.80;;
80854;SDS011;70272;49.222;-122.892;2023-11-18T13:34:40;3.90;;;2.85;;
80854;SDS011;70272;49.222;-122.892;2023-11-18T13:37:10;4.03;;;2.47;;
80854;SDS011;70272;49.222;-122.892;2023-11-18T13:39:42;4.20;;;2.88;;
80854;SDS011;70272;49.222;-122.892;2023-11-18T13:47:13;3.45;;;2.60;;
80854;SDS011;70272;49.222;-122.892;2023-11-18T13:49:43;4.00;;;2.28;;
80854;SDS011;70272;49.222;-122.892;2023-11-18T13:52:09;3.47;;;2.50;;
80854;SDS011;70272;49.222;-122.892;2023-11-18T13:54:43;3.33;;;2.90;;
80854;SDS011;70272;49.222;-122.892;2023-11-18T13:57:10;5.38;;;2.55;;
80854;SDS011;70272;49.222;-122.892;2023-11-18T13:59:40;3.78;;;2.80;;
80854;SDS011;70272;49.222;-122.892;2023-11-18T14:02:09;3.25;;;2.40;;
80854;SDS011;70272;49.222;-122.892;2023-11-18T14:04:35;5.63;;;2.70;;
80854;SDS011;70272;49.222;-122.892;2023-11-18T14:07:03;4.80;;;2.53;;
80854;SDS011;70272;49.222;-122.892;2023-11-18T14:09:31;4.90;;;2.80;;
80854;SDS011;70272;49.222;-122.892;2023-11-18T14:12:01;3.30;;;2.30;;
80854;SDS011;70272;49.222;-122.892;2023-11-18T14:14:28;4.50;;;2.20;;
80854;SDS011;70272;49.222;-122.892;2023-11-18T14:16:55;4.38;;;2.33;;
80854;SDS011;70272;49.222;-122.892;2023-11-18T14:19:30;2.90;;;2.10;;
80854;SDS011;70272;49.222;-122.892;2023-11-18T14:21:56;4.82;;;2.30;;
80854;SDS011;70272;49.222;-122.892;2023-11-18T14:24:22;3.17;;;2.45;;
80854;SDS011;70272;49.222;-122.892;2023-11-18T14:26:56;3.60;;;2.45;;
80854;SDS011;70272;49.222;-122.892;2023-11-18T14:29:22;3.60;;;1.98;;
80854;SDS011;70272;49.222;-122.892;2023-11-18T14:31:49;3.45;;;2.20;;
80854;SDS011;70272;49.222;-122.892;2023-11-18T14:34:15;6.40;;;2.45;;
80854;SDS011;70272;49.222;-122.892;2023-11-18T14:36:41;3.70;;;2.47;;
80854;SDS011;70272;49.222;-122.892;2023-11-18T14:39:10;5.90;;;2.85;;
80854;SDS011;70272;49.222;-122.892;2023-11-18T14:41:40;4.68;;;2.47;;
80854;SDS011;70272;49.222;-122.892;2023-11-18T14:44:06;3.35;;;2.30;;